Time;durP1;ratioP1;P1;durP2;ratioP2;P2;SDS_P1;SDS_P2;PMS_P1;PMS_P2;Temp;Humidity;BMP_temperature;BMP_pressure;BME280_temperature;BME280_humidity;BME280_pressure;Samples;Min_cycle;Max_cycle;Signal;HPM_P1;HPM_P2
2023/05/09 00:00:38;;;;;;;3.10;2.80;;;;;;;11.30;67.63;101248.94;5068114;28;20240;-81
2023/05/09 00:03:05;;;;;;;3.20;2.90;;;;;;;11.22;68.03;101240.53;5073854;28;20210;-82
2023/05/09 00:05:32;;;;;;;3.50;3.20;;;;;;;11.18;68.64;101248.78;5067775;28;20256;-81
2023/05/09 00:07:58;;;;;;;3.30;3.00;;;;;;;11.13;69.04;101247.25;5061808;28;20213;-81
2023/05/09 00:10:26;;;;;;;3.47;3.17;;;;;;;11.12;69.33;101255.31;5063330;28;20222;-81
2023/05/09 00:12:54;;;;;;;3.17;2.87;;;;;;;11.11;69.44;101250.94;5071978;28;20207;-81
2023/05/09 00:15:21;;;;;;;3.40;3.10;;;;;;;11.08;69.70;101251.13;5067718;28;20227;-82
2023/05/09 00:17:47;;;;;;;3.40;3.10;;;;;;;11.05;69.95;101252.16;5070308;28;20233;-82
2023/05/09 00:20:14;;;;;;;4.90;3.27;;;;;;;11.03;69.98;101248.72;5063665;28;20242;-82
2023/05/09 00:22:40;;;;;;;5.00;2.90;;;;;;;11.00;70.10;101240.88;5065463;28;20205;-81
2023/05/09 00:25:08;;;;;;;4.00;3.17;;;;;;;10.96;70.35;101242.00;5063388;28;20207;-82
2023/05/09 00:27:35;;;;;;;3.63;3.13;;;;;;;10.94;70.36;101240.34;5069132;28;20208;-82
2023/05/09 00:30:04;;;;;;;4.63;3.10;;;;;;;10.90;70.71;101241.50;5074560;28;20685;-82
2023/05/09 00:32:30;;;;;;;6.13;3.13;;;;;;;10.87;70.81;101239.84;5070536;28;20206;-82
2023/05/09 00:34:57;;;;;;;4.10;3.27;;;;;;;10.85;71.08;101244.41;5066624;28;20663;-82
2023/05/09 00:37:25;;;;;;;4.73;3.17;;;;;;;10.78;71.20;101233.22;5070276;28;20232;-81
2023/05/09 00:39:51;;;;;;;3.83;3.53;;;;;;;10.75;71.54;101229.84;5066680;28;20244;-81
2023/05/09 00:42:18;;;;;;;3.50;3.20;;;;;;;10.71;71.65;101226.50;5067686;28;20212;-81
2023/05/09 00:44:44;;;;;;;3.47;3.17;;;;;;;10.69;71.59;101227.53;5074372;28;20207;-82
2023/05/09 00:47:12;;;;;;;3.63;3.33;;;;;;;10.63;71.73;101217.19;5071166;28;20285;-82
2023/05/09 00:49:39;;;;;;;3.87;3.20;;;;;;;10.57;71.61;101213.06;5067838;28;20241;-81
2023/05/09 00:52:05;;;;;;;3.40;3.10;;;;;;;10.49;71.32;101206.44;5067314;28;20204;-81
2023/05/09 00:54:32;;;;;;;2.83;2.60;;;;;;;10.39;71.58;101211.41;5067809;28;20209;-81
2023/05/09 00:56:59;;;;;;;4.07;3.30;;;;;;;10.33;71.61;101204.63;5064923;28;20197;-81
2023/05/09 00:59:26;;;;;;;4.50;3.23;;;;;;;10.32;72.28;101215.34;5063313;28;20739;-81
2023/05/09 01:01:52;;;;;;;3.27;2.97;;;;;;;10.28;72.48;101209.31;5069228;28;20213;-81
2023/05/09 01:04:20;;;;;;;3.87;3.37;;;;;;;10.29;73.36;101218.16;5065940;28;20225;-82
2023/05/09 01:06:55;;;;;;;4.03;3.73;;;;;;;10.29;73.14;101207.50;5073694;28;20292;-82
2023/05/09 01:09:27;;;;;;;5.40;3.47;;;;;;;10.28;73.54;101206.66;5066189;28;20665;-82
2023/05/09 01:12:06;;;;;;;4.33;3.40;;;;;;;10.27;73.51;101204.06;5064971;28;20201;-82
2023/05/09 01:14:41;;;;;;;4.23;3.80;;;;;;;10.25;73.38;101200.63;5070899;28;20692;-82
2023/05/09 01:17:12;;;;;;;4.53;3.47;;;;;;;10.23;73.56;101197.19;5066095;28;20227;-82
2023/05/09 01:20:04;;;;;;;4.40;3.47;;;;;;;10.17;73.20;101198.34;5067233;28;20228;-82
2023/05/09 01:22:35;;;;;;;4.50;3.10;;;;;;;10.06;72.24;101192.72;5063627;28;20210;-82
2023/05/09 01:25:33;;;;;;;5.80;3.77;;;;;;;9.91;72.13;101190.88;5060190;28;20203;-82
2023/05/09 01:28:12;;;;;;;3.77;2.90;;;;;;;9.75;73.03;101186.34;5058537;28;20370;-80
2023/05/09 01:30:43;;;;;;;4.77;3.50;;;;;;;9.69;73.87;101185.78;5064374;28;21466;-80
2023/05/09 01:33:14;;;;;;;4.10;3.30;;;;;;;9.66;74.67;101181.50;5062072;28;20208;-80
2023/05/09 01:35:44;;;;;;;4.77;3.73;;;;;;;9.64;75.18;101175.41;5070487;28;20543;-80
2023/05/09 01:38:15;;;;;;;5.57;3.80;;;;;;;9.63;75.40;101170.16;5068720;28;20220;-80
2023/05/09 01:40:44;;;;;;;4.00;3.70;;;;;;;9.59;75.41;101172.09;5069081;28;20224;-80
2023/05/09 01:43:13;;;;;;;4.27;3.30;;;;;;;9.58;75.36;101165.06;5063600;28;20208;-81
2023/05/09 01:45:42;;;;;;;4.43;3.80;;;;;;;9.56;76.17;101164.28;5057221;28;20260;-81
2023/05/09 01:48:10;;;;;;;4.23;3.80;;;;;;;9.57;76.15;101165.13;5062325;28;20934;-80
2023/05/09 01:50:39;;;;;;;4.00;3.70;;;;;;;9.56;76.82;101164.28;5060736;28;20236;-80
2023/05/09 01:53:07;;;;;;;5.53;3.80;;;;;;;9.57;76.74;101170.47;5068308;28;20216;-80
2023/05/09 01:55:36;;;;;;;3.70;3.33;;;;;;;9.55;76.46;101159.91;5067869;28;20221;-80
2023/05/09 01:58:04;;;;;;;3.90;3.40;;;;;;;9.51;75.72;101166.31;5065762;28;20794;-80
2023/05/09 02:00:31;;;;;;;3.60;3.30;;;;;;;9.47;75.72;101158.59;5062174;28;20235;-80
2023/05/09 02:03:00;;;;;;;3.97;3.63;;;;;;;9.42;76.25;101161.47;5068595;28;20201;-80
2023/05/09 02:05:29;;;;;;;5.13;4.17;;;;;;;9.38;76.75;101165.22;5057191;28;20707;-80
2023/05/09 02:07:57;;;;;;;6.07;4.07;;;;;;;9.35;76.81;101165.34;5064976;28;20202;-80
2023/05/09 02:10:25;;;;;;;5.03;3.87;;;;;;;9.33;77.24;101162.78;5067337;28;20620;-80
2023/05/09 02:12:51;;;;;;;6.37;4.17;;;;;;;9.30;77.56;101152.31;5071903;28;20216;-80
2023/05/09 02:15:18;;;;;;;4.80;4.10;;;;;;;9.28;77.49;101158.66;5062219;28;20202;-80
2023/05/09 02:17:45;;;;;;;4.30;3.90;;;;;;;9.26;77.30;101155.19;5065702;28;20234;-80
2023/05/09 02:20:13;;;;;;;4.37;3.97;;;;;;;9.26;77.72;101160.50;5059686;28;20276;-80
2023/05/09 02:22:42;;;;;;;4.40;3.83;;;;;;;9.24;78.29;101149.97;5063339;28;20594;-80
2023/05/09 02:25:10;;;;;;;5.20;4.70;;;;;;;9.24;78.24;101149.97;5072778;28;20220;-80
2023/05/09 02:27:38;;;;;;;5.07;4.30;;;;;;;9.24;79.09;101146.44;5068395;28;20237;-81
2023/05/09 02:30:09;;;;;;;5.23;4.40;;;;;;;9.22;78.20;101148.31;5055435;28;20240;-81
2023/05/09 02:32:38;;;;;;;4.57;3.63;;;;;;;9.14;77.64;101145.16;5059717;28;20208;-80
2023/05/09 02:35:08;;;;;;;3.77;3.27;;;;;;;9.04;77.20;101150.94;5060887;28;20256;-80
2023/05/09 02:37:37;;;;;;;5.30;4.67;;;;;;;8.99;77.80;101157.41;5065233;28;20229;-80
2023/05/09 02:40:05;;;;;;;4.97;4.47;;;;;;;8.95;78.21;101154.06;5067379;28;20224;-80
2023/05/09 02:42:31;;;;;;;8.10;4.57;;;;;;;8.95;79.35;101156.72;5068007;28;20209;-81
2023/05/09 02:44:58;;;;;;;5.07;4.17;;;;;;;8.93;79.60;101142.66;5066788;28;20204;-80
2023/05/09 02:47:24;;;;;;;5.10;4.63;;;;;;;8.91;79.24;101139.19;5070494;28;20208;-81
2023/05/09 02:49:51;;;;;;;5.43;4.10;;;;;;;8.89;79.98;101151.69;5062972;28;20613;-80
2023/05/09 02:52:17;;;;;;;4.90;4.33;;;;;;;8.86;80.17;101145.66;5066371;28;20676;-81
2023/05/09 02:54:46;;;;;;;5.10;4.60;;;;;;;8.85;80.37;101149.25;5062024;28;20210;-80
2023/05/09 02:57:13;;;;;;;4.30;3.87;;;;;;;8.85;80.00;101138.63;5067806;28;20201;-80
2023/05/09 02:59:39;;;;;;;4.70;4.20;;;;;;;8.85;80.83;101142.13;5064142;28;20229;-81
2023/05/09 03:02:05;;;;;;;5.50;4.40;;;;;;;8.84;80.83;101135.09;5069078;28;20223;-80
2023/05/09 03:04:32;;;;;;;5.07;4.10;;;;;;;8.83;80.55;101141.34;5067230;28;20205;-80
2023/05/09 03:06:58;;;;;;;7.60;4.43;;;;;;;8.81;80.15;101142.34;5070605;28;20205;-80
2023/05/09 03:09:25;;;;;;;9.50;5.60;;;;;;;8.80;81.07;101135.31;5067488;28;20204;-80
2023/05/09 03:11:55;;;;;;;6.07;4.53;;;;;;;8.77;81.08;101131.03;5070341;28;20258;-80
2023/05/09 03:14:21;;;;;;;5.23;4.63;;;;;;;8.73;80.49;101137.44;5062845;28;20209;-81
2023/05/09 03:16:48;;;;;;;6.83;5.33;;;;;;;8.67;80.57;101130.59;5070387;28;20201;-81
2023/05/09 03:19:14;;;;;;;5.87;4.27;;;;;;;8.61;79.94;101128.22;5068450;28;20696;-81
2023/05/09 03:21:41;;;;;;;4.60;4.20;;;;;;;8.55;79.85;101125.03;5071533;28;20213;-80
2023/05/09 03:24:08;;;;;;;4.03;3.67;;;;;;;8.48;80.33;101112.97;5068955;28;20660;-80
2023/05/09 03:26:35;;;;;;;4.33;3.87;;;;;;;8.45;81.28;101113.09;5062185;28;20258;-81
2023/05/09 03:29:03;;;;;;;4.80;4.30;;;;;;;8.43;81.72;101112.31;5070737;28;20227;-80
2023/05/09 03:31:30;;;;;;;6.07;4.83;;;;;;;8.41;81.40;101112.41;5063037;28;20240;-80
2023/05/09 03:33:57;;;;;;;7.63;4.60;;;;;;;8.42;82.37;101116.75;5066055;28;20213;-81
2023/05/09 03:36:24;;;;;;;5.83;5.23;;;;;;;8.43;82.32;101112.31;5066932;28;20273;-81
2023/05/09 03:38:50;;;;;;;5.03;4.50;;;;;;;8.44;82.65;101116.69;5067633;28;20715;-80
2023/05/09 03:41:17;;;;;;;6.50;4.83;;;;;;;8.45;82.12;101116.63;5061021;28;20715;-80
2023/05/09 03:43:44;;;;;;;4.80;4.40;;;;;;;8.46;81.87;101117.47;5064221;28;20201;-80
2023/05/09 03:46:11;;;;;;;5.33;4.50;;;;;;;8.44;82.66;101114.03;5067994;28;20204;-80
2023/05/09 03:48:38;;;;;;;6.60;5.00;;;;;;;8.39;81.99;101114.28;5066069;28;20216;-80
2023/05/09 03:51:04;;;;;;;6.23;4.87;;;;;;;8.32;81.57;101105.72;5066610;28;20228;-80
2023/05/09 03:53:31;;;;;;;5.20;4.70;;;;;;;8.25;81.88;101098.09;5070074;28;20230;-81
2023/05/09 03:55:57;;;;;;;5.13;4.63;;;;;;;8.20;81.61;101098.31;5069014;28;20538;-80
2023/05/09 03:58:24;;;;;;;5.17;4.37;;;;;;;8.13;81.94;101099.53;5064943;28;20601;-80
2023/05/09 04:00:51;;;;;;;5.47;4.97;;;;;;;8.08;82.58;101098.84;5071904;28;20217;-81
2023/05/09 04:03:19;;;;;;;6.67;5.50;;;;;;;8.05;83.52;101100.81;5063136;28;20213;-81
2023/05/09 04:05:45;;;;;;;5.30;4.80;;;;;;;8.04;83.69;101097.31;5063242;28;20287;-81
2023/05/09 04:08:12;;;;;;;5.63;4.90;;;;;;;8.06;84.14;101099.88;5066537;28;20661;-81
2023/05/09 04:10:38;;;;;;;7.33;5.03;;;;;;;8.08;84.32;101095.34;5067679;28;20252;-81
2023/05/09 04:13:05;;;;;;;7.00;5.17;;;;;;;8.10;84.40;101089.03;5071311;28;20660;-81
2023/05/09 04:15:31;;;;;;;6.73;5.50;;;;;;;8.11;84.42;101082.81;5064252;28;20205;-81
2023/05/09 04:17:58;;;;;;;6.53;5.37;;;;;;;8.13;84.33;101086.25;5067091;28;20197;-81
2023/05/09 04:20:26;;;;;;;6.30;5.67;;;;;;;8.12;84.38;101081.00;5071722;28;20229;-80
2023/05/09 04:22:52;;;;;;;6.43;5.43;;;;;;;8.11;83.98;101072.19;5065957;28;20209;-80
2023/05/09 04:25:19;;;;;;;5.77;4.80;;;;;;;8.10;83.82;101073.13;5065847;28;20587;-81
2023/05/09 04:27:45;;;;;;;7.40;5.10;;;;;;;8.10;83.97;101074.91;5065986;28;20204;-81
2023/05/09 04:30:12;;;;;;;5.90;5.40;;;;;;;8.09;84.49;101075.84;5061549;28;20728;-81
2023/05/09 04:32:39;;;;;;;6.23;5.63;;;;;;;8.10;85.01;101077.56;5076008;28;20601;-81
2023/05/09 04:35:07;;;;;;;6.17;5.57;;;;;;;8.11;84.80;101077.50;5072186;28;20575;-81
2023/05/09 04:37:34;;;;;;;6.80;5.93;;;;;;;8.13;84.56;101080.09;5067415;28;20664;-80
2023/05/09 04:40:01;;;;;;;6.70;5.67;;;;;;;8.14;84.74;101080.03;5068890;28;20224;-81
2023/05/09 04:42:28;;;;;;;6.80;5.77;;;;;;;8.20;85.67;101089.50;5066101;28;20212;-81
2023/05/09 04:44:54;;;;;;;8.10;6.83;;;;;;;8.23;84.86;101087.56;5063847;28;20201;-80
2023/05/09 04:47:21;;;;;;;8.17;6.00;;;;;;;8.25;84.81;101090.97;5067067;28;20216;-80
2023/05/09 04:49:47;;;;;;;7.40;5.70;;;;;;;8.29;85.36;101089.06;5059691;28;20231;-81
2023/05/09 04:52:14;;;;;;;6.43;5.83;;;;;;;8.33;85.51;101080.91;5060315;28;20202;-81
2023/05/09 04:54:41;;;;;;;8.43;5.90;;;;;;;8.35;85.19;101073.75;5062126;28;20217;-81
2023/05/09 04:57:08;;;;;;;7.73;6.10;;;;;;;8.39;85.02;101073.59;5067578;28;20621;-81
2023/05/09 04:59:34;;;;;;;7.80;6.17;;;;;;;8.41;85.17;101074.41;5066093;28;20734;-81
2023/05/09 05:02:03;;;;;;;7.53;6.73;;;;;;;8.44;85.26;101077.75;5066168;28;20215;-80
2023/05/09 05:04:29;;;;;;;8.37;6.50;;;;;;;8.48;85.85;101068.69;5064411;28;20213;-80
2023/05/09 05:06:55;;;;;;;8.50;6.03;;;;;;;8.53;85.94;101066.69;5066125;28;20783;-81
2023/05/09 05:09:22;;;;;;;24.13;7.03;;;;;;;8.60;86.79;101065.44;5060401;28;20212;-79
2023/05/09 05:11:50;;;;;;;9.07;6.27;;;;;;;8.66;87.42;101064.28;5070130;28;20197;-80
2023/05/09 05:14:16;;;;;;;8.07;6.40;;;;;;;8.73;87.33;101071.03;5066961;28;20213;-81
2023/05/09 05:16:43;;;;;;;8.60;7.03;;;;;;;8.80;87.53;101063.63;5064056;28;20328;-80
2023/05/09 05:19:17;;;;;;;9.30;7.10;;;;;;;8.88;88.57;101070.28;5061723;28;20224;-80
2023/05/09 05:21:43;;;;;;;8.27;7.13;;;;;;;8.97;88.73;101069.81;5065345;28;21410;-81
2023/05/09 05:24:10;;;;;;;7.70;6.90;;;;;;;9.05;89.04;101064.13;5064575;28;20661;-81
2023/05/09 05:26:36;;;;;;;8.00;6.83;;;;;;;9.14;88.61;101066.28;5063881;28;20212;-81
2023/05/09 05:29:07;;;;;;;8.43;7.20;;;;;;;9.25;89.12;101063.13;5056567;28;20205;-81
2023/05/09 05:31:33;;;;;;;9.90;9.00;;;;;;;9.33;89.61;101064.41;5064559;28;20213;-81
2023/05/09 05:34:00;;;;;;;8.50;7.60;;;;;;;9.43;89.08;101061.31;5066718;28;20220;-81
2023/05/09 05:36:26;;;;;;;9.53;7.13;;;;;;;9.51;88.73;101057.28;5067360;28;20205;-80
2023/05/09 05:38:53;;;;;;;8.80;6.97;;;;;;;9.59;88.63;101056.91;5062377;28;20224;-81
2023/05/09 05:41:19;;;;;;;7.90;7.07;;;;;;;9.68;88.82;101057.25;5062756;28;20273;-82
2023/05/09 05:43:46;;;;;;;7.23;6.53;;;;;;;9.82;88.98;101061.00;5063135;28;20205;-82
2023/05/09 05:46:13;;;;;;;7.80;7.10;;;;;;;9.95;89.00;101062.91;5060739;28;20227;-81
2023/05/09 05:48:40;;;;;;;7.30;6.60;;;;;;;10.11;88.87;101060.28;5062426;28;20214;-81
2023/05/09 05:51:06;;;;;;;7.40;6.70;;;;;;;10.28;89.36;101046.91;5063737;28;20229;-82
2023/05/09 05:53:33;;;;;;;6.67;6.07;;;;;;;10.46;88.60;101045.03;5058976;28;20215;-82
2023/05/09 05:55:59;;;;;;;7.60;6.10;;;;;;;10.63;88.13;101041.41;5058045;28;20217;-81
2023/05/09 05:58:26;;;;;;;8.03;6.93;;;;;;;10.77;86.97;101041.47;5063180;28;20316;-81
2023/05/09 06:00:53;;;;;;;7.40;6.60;;;;;;;10.92;86.46;101037.94;5064116;28;20228;-82
2023/05/09 06:03:21;;;;;;;7.70;7.00;;;;;;;11.07;85.43;101034.34;5065540;28;20216;-81
2023/05/09 06:05:49;;;;;;;8.50;7.23;;;;;;;11.26;85.57;101025.25;5070578;28;20206;-81
2023/05/09 06:08:16;;;;;;;9.80;8.50;;;;;;;11.45;85.63;101033.88;5071283;28;20859;-82
2023/05/09 06:10:42;;;;;;;9.67;6.97;;;;;;;11.64;85.62;101025.59;5064437;28;20228;-81
2023/05/09 06:13:09;;;;;;;8.03;7.23;;;;;;;11.86;85.06;101025.13;5071812;28;20579;-82
2023/05/09 06:15:35;;;;;;;7.90;6.43;;;;;;;12.03;84.50;101025.78;5065106;28;20210;-81
2023/05/09 06:18:02;;;;;;;6.53;5.90;;;;;;;12.20;83.42;101026.50;5066706;28;20203;-82
2023/05/09 06:20:30;;;;;;;7.47;6.33;;;;;;;12.35;81.71;101030.91;5066863;28;20271;-82
2023/05/09 06:22:56;;;;;;;6.70;6.00;;;;;;;12.49;79.95;101031.72;5062604;28;20205;-81
2023/05/09 06:25:22;;;;;;;7.10;6.40;;;;;;;12.62;78.75;101028.22;5065041;28;20205;-81
2023/05/09 06:27:49;;;;;;;6.43;5.80;;;;;;;12.77;77.27;101021.84;5067185;28;20197;-81
2023/05/09 06:30:15;;;;;;;8.33;5.90;;;;;;;12.92;77.02;101014.63;5062362;28;20219;-81
2023/05/09 06:32:42;;;;;;;6.20;5.53;;;;;;;13.11;77.03;101007.06;5072986;28;20220;-82
2023/05/09 06:35:15;;;;;;;7.07;6.17;;;;;;;13.28;76.21;101001.47;5068740;28;20197;-82
2023/05/09 06:37:45;;;;;;;6.70;5.80;;;;;;;13.50;76.19;100999.00;5065132;28;20201;-82
2023/05/09 06:40:12;;;;;;;8.37;5.90;;;;;;;13.71;75.86;100985.94;5070515;28;20225;-83
2023/05/09 06:42:38;;;;;;;5.83;5.30;;;;;;;13.96;75.47;101000.28;5059843;28;20196;-83
2023/05/09 06:45:08;;;;;;;6.87;5.30;;;;;;;14.17;74.19;100998.69;5056563;28;20801;-82
2023/05/09 06:47:34;;;;;;;6.37;5.20;;;;;;;14.37;73.20;100995.41;5071259;28;20678;-82
2023/05/09 06:50:01;;;;;;;5.10;4.67;;;;;;;14.54;71.85;100987.00;5066561;28;20232;-83
2023/05/09 06:52:27;;;;;;;4.97;4.47;;;;;;;14.74;70.20;100984.66;5066126;28;20209;-82
2023/05/09 06:54:55;;;;;;;5.50;5.00;;;;;;;14.92;70.49;100969.88;5060474;28;20584;-82
2023/05/09 06:57:22;;;;;;;6.60;4.63;;;;;;;15.13;70.01;100962.00;5066801;28;20205;-82
2023/05/09 06:59:48;;;;;;;4.50;4.10;;;;;;;15.33;69.22;100964.00;5073722;28;20232;-83
2023/05/09 07:02:15;;;;;;;3.97;3.60;;;;;;;15.52;68.13;100955.34;5068361;28;20205;-82
2023/05/09 07:04:41;;;;;;;3.17;2.83;;;;;;;15.67;64.21;100954.16;5075084;28;20229;-82
2023/05/09 07:07:08;;;;;;;3.93;3.23;;;;;;;15.84;62.98;100950.13;5066709;28;20645;-81
2023/05/09 07:09:34;;;;;;;3.70;3.40;;;;;;;16.03;61.05;100944.13;5066921;28;20238;-82
2023/05/09 07:12:02;;;;;;;2.97;2.77;;;;;;;16.21;59.26;100938.09;5068522;28;20207;-82
2023/05/09 07:14:29;;;;;;;3.13;2.83;;;;;;;16.39;56.81;100941.09;5070854;28;20210;-82
2023/05/09 07:16:55;;;;;;;3.60;3.30;;;;;;;16.56;55.54;100937.00;5060170;28;20205;-83
2023/05/09 07:19:22;;;;;;;3.53;3.13;;;;;;;16.73;54.62;100932.91;5065933;28;20628;-82
2023/05/09 07:21:48;;;;;;;3.47;2.80;;;;;;;16.87;53.72;100927.22;5068857;28;20231;-83
2023/05/09 07:24:15;;;;;;;3.20;2.90;;;;;;;17.04;53.95;100929.31;5064637;28;20208;-83
2023/05/09 07:26:41;;;;;;;3.27;2.97;;;;;;;17.23;53.73;100923.19;5070068;28;20209;-83
2023/05/09 07:29:09;;;;;;;3.40;3.10;;;;;;;17.40;51.94;100919.03;5070626;28;20764;-80
2023/05/09 07:31:35;;;;;;;3.43;3.00;;;;;;;17.50;51.20;100910.03;5076083;28;20627;-83
2023/05/09 07:34:02;;;;;;;3.83;3.47;;;;;;;17.64;51.13;100914.22;5075493;28;20209;-82
2023/05/09 07:36:28;;;;;;;3.20;2.90;;;;;;;17.78;51.28;100916.53;5071698;28;20583;-81
2023/05/09 07:38:55;;;;;;;5.87;3.37;;;;;;;17.90;51.17;100907.38;5067853;28;20202;-82
2023/05/09 07:41:22;;;;;;;3.23;2.93;;;;;;;18.01;51.17;100901.84;5068400;28;20224;-82
2023/05/09 07:43:52;;;;;;;2.90;2.70;;;;;;;18.15;51.50;100894.34;5070592;28;20256;-82
2023/05/09 07:46:20;;;;;;;3.37;3.07;;;;;;;18.27;49.86;100888.66;5067979;28;20233;-82
2023/05/09 07:48:47;;;;;;;4.23;3.83;;;;;;;18.40;50.80;100893.81;5062858;28;20216;-82
2023/05/09 07:51:13;;;;;;;3.63;3.23;;;;;;;18.53;50.58;100888.97;5067667;28;20249;-81
2023/05/09 07:53:39;;;;;;;3.37;2.93;;;;;;;18.66;49.84;100886.00;5064357;28;20209;-82
2023/05/09 07:56:06;;;;;;;4.87;3.30;;;;;;;18.76;49.15;100877.91;5066997;28;20232;-82
2023/05/09 07:58:35;;;;;;;3.40;3.20;;;;;;;18.86;48.66;100876.91;5068720;28;20215;-83
2023/05/09 08:01:02;;;;;;;4.47;3.10;;;;;;;18.94;48.20;100868.94;5064642;28;20311;-83
2023/05/09 08:03:30;;;;;;;3.83;3.50;;;;;;;19.04;48.79;100868.91;5065762;28;20208;-82
2023/05/09 08:05:59;;;;;;;3.13;2.93;;;;;;;19.13;48.45;100870.75;5066209;28;21346;-82
2023/05/09 08:08:27;;;;;;;3.57;3.27;;;;;;;19.25;47.56;100860.59;5068609;28;20227;-83
2023/05/09 08:10:53;;;;;;;5.17;3.17;;;;;;;19.29;46.78;100862.88;5065494;28;20272;-82
2023/05/09 08:13:21;;;;;;;5.47;3.60;;;;;;;19.36;47.01;100866.66;5061331;28;20210;-82
2023/05/09 08:15:47;;;;;;;5.10;3.37;;;;;;;19.45;47.50;100866.78;5065987;28;20247;-82
2023/05/09 08:18:14;;;;;;;4.40;3.70;;;;;;;19.54;47.14;100861.34;5071417;28;20303;-82
2023/05/09 08:20:42;;;;;;;3.73;3.37;;;;;;;19.66;47.58;100856.63;5067104;28;20228;-82
2023/05/09 08:23:09;;;;;;;5.00;3.40;;;;;;;19.82;47.41;100842.44;5057493;28;20203;-82
2023/05/09 08:25:36;;;;;;;3.67;3.20;;;;;;;19.97;48.00;100849.88;5071845;28;20234;-82
2023/05/09 08:28:03;;;;;;;5.33;3.53;;;;;;;20.10;48.74;100846.78;5063047;28;20226;-82
2023/05/09 08:30:29;;;;;;;3.77;3.43;;;;;;;20.21;48.86;100843.00;5063225;28;20230;-81
2023/05/09 08:32:56;;;;;;;4.18;3.60;;;;;;;20.33;48.56;100836.34;5069272;28;20207;-82
2023/05/09 08:35:22;;;;;;;5.37;3.87;;;;;;;20.40;46.65;100832.06;5068511;28;20211;-83
2023/05/09 08:37:50;;;;;;;3.50;3.20;;;;;;;20.45;46.93;100832.41;5070265;28;20217;-82
2023/05/09 08:40:17;;;;;;;3.23;2.93;;;;;;;20.49;46.94;100823.00;5071607;28;20236;-82
2023/05/09 08:42:44;;;;;;;3.97;3.55;;;;;;;20.58;47.23;100821.22;5068698;28;20209;-83
2023/05/09 08:45:13;;;;;;;4.78;3.20;;;;;;;20.67;47.44;100813.00;5069780;28;20653;-83
2023/05/09 08:47:40;;;;;;;4.22;3.58;;;;;;;20.78;47.10;100817.31;5066746;28;20228;-82
2023/05/09 08:50:08;;;;;;;5.22;3.63;;;;;;;20.86;47.07;100809.22;5065676;28;20240;-83
2023/05/09 08:52:35;;;;;;;4.15;2.80;;;;;;;20.94;46.86;100811.16;5069209;28;20205;-82
2023/05/09 08:55:05;;;;;;;4.22;3.20;;;;;;;21.06;47.39;100804.44;5060175;28;20572;-82
2023/05/09 08:57:33;;;;;;;4.43;3.30;;;;;;;21.18;46.95;100810.41;5062932;28;20208;-82
2023/05/09 09:00:00;;;;;;;3.97;3.30;;;;;;;21.26;46.17;100802.38;5068473;28;20235;-82
2023/05/09 09:02:27;;;;;;;4.18;3.30;;;;;;;21.31;45.53;100797.31;5065815;28;20205;-82
2023/05/09 09:04:54;;;;;;;4.65;3.50;;;;;;;21.44;45.98;100803.97;5069398;28;20201;-82
2023/05/09 09:07:22;;;;;;;3.53;3.22;;;;;;;21.57;43.93;100787.25;5066367;28;20201;-83
2023/05/09 09:09:49;;;;;;;5.05;3.22;;;;;;;21.64;43.65;100782.88;5071761;28;20220;-83
2023/05/09 09:12:18;;;;;;;3.22;3.03;;;;;;;21.75;43.83;100784.41;5072256;28;20196;-83
2023/05/09 09:14:50;;;;;;;3.85;3.40;;;;;;;21.83;43.50;100776.31;5067617;28;20212;-82
2023/05/09 09:17:19;;;;;;;3.78;3.10;;;;;;;21.92;45.08;100783.44;5067752;28;20292;-83
2023/05/09 09:19:49;;;;;;;3.20;3.00;;;;;;;22.00;45.19;100767.22;5067708;28;20268;-84
2023/05/09 09:22:19;;;;;;;3.88;3.58;;;;;;;21.99;45.19;100779.03;5066431;28;20691;-83
2023/05/09 09:24:45;;;;;;;4.45;3.70;;;;;;;21.96;45.48;100771.22;5068512;28;20215;-84
2023/05/09 09:27:16;;;;;;;3.85;3.50;;;;;;;21.97;46.20;100778.34;5071884;28;20295;-83
2023/05/09 09:29:43;;;;;;;4.13;3.72;;;;;;;22.02;45.95;100788.75;5073392;28;20236;-83
2023/05/09 09:32:33;;;;;;;3.65;3.35;;;;;;;22.09;45.85;100771.59;5069944;28;20207;-84
2023/05/09 09:35:06;;;;;;;4.93;3.00;;;;;;;22.10;42.17;100762.47;5058391;28;20207;-83
2023/05/09 09:37:38;;;;;;;4.45;3.20;;;;;;;22.04;40.20;100760.41;5068349;28;20208;-83
2023/05/09 09:40:08;;;;;;;3.40;3.20;;;;;;;22.07;41.26;100753.81;5071458;28;20258;-82
2023/05/09 09:42:42;;;;;;;3.63;2.97;;;;;;;22.10;41.46;100739.91;5070681;28;20205;-84
2023/05/09 09:45:12;;;;;;;4.72;3.35;;;;;;;22.13;40.34;100736.84;5071860;28;20196;-82
2023/05/09 09:47:39;;;;;;;4.35;3.55;;;;;;;22.14;40.00;100736.69;5068261;28;20211;-83
2023/05/09 09:50:11;;;;;;;3.38;3.08;;;;;;;22.24;40.02;100738.38;5068704;28;20232;-84
2023/05/09 09:52:42;;;;;;;4.30;3.90;;;;;;;22.36;41.54;100724.31;5070813;28;20201;-84
2023/05/09 09:55:09;;;;;;;3.70;3.40;;;;;;;22.49;41.76;100726.47;5069601;28;20660;-83
2023/05/09 09:57:38;;;;;;;4.82;4.13;;;;;;;22.56;39.67;100723.94;5073262;28;20212;-86
2023/05/09 10:00:08;;;;;;;3.42;3.13;;;;;;;22.58;38.05;100727.28;5070423;28;20243;-84
2023/05/09 10:02:34;;;;;;;2.88;2.67;;;;;;;22.68;39.37;100723.38;5072249;28;20200;-84
2023/05/09 10:05:07;;;;;;;3.40;3.15;;;;;;;22.83;38.98;100712.69;5068352;28;20205;-84
2023/05/09 10:07:35;;;;;;;3.45;3.15;;;;;;;22.84;38.94;100704.38;5067570;28;20206;-84
2023/05/09 10:10:04;;;;;;;3.70;3.33;;;;;;;22.97;38.65;100703.78;5067260;28;20700;-84
2023/05/09 10:12:34;;;;;;;3.83;3.42;;;;;;;23.05;38.66;100700.22;5068985;28;20201;-84
2023/05/09 10:15:03;;;;;;;3.97;3.58;;;;;;;23.13;39.04;100702.88;5068374;28;20197;-83
2023/05/09 10:17:32;;;;;;;3.17;2.90;;;;;;;23.22;37.50;100701.81;5067572;28;20213;-84
2023/05/09 10:20:04;;;;;;;3.42;3.00;;;;;;;23.23;36.74;100689.09;5067903;28;20263;-84
2023/05/09 10:22:32;;;;;;;3.85;2.72;;;;;;;23.31;36.71;100684.44;5071032;28;20204;-83
2023/05/09 10:25:03;;;;;;;4.05;2.92;;;;;;;23.38;35.67;100681.88;5094296;22;21438;-71
2023/05/09 10:27:32;;;;;;;3.70;3.40;;;;;;;23.38;35.81;100671.84;5075590;28;20224;-71
2023/05/09 10:30:04;;;;;;;4.20;3.15;;;;;;;23.45;36.73;100674.69;5059199;28;20207;-71
2023/05/09 10:32:41;;;;;;;3.75;3.45;;;;;;;23.50;36.44;100675.81;5057888;28;20209;-71
2023/05/09 10:35:12;;;;;;;3.45;3.13;;;;;;;23.56;36.73;100658.00;5066903;28;20207;-71
2023/05/09 10:37:39;;;;;;;3.35;3.10;;;;;;;23.61;36.39;100663.75;5098311;22;20227;-82
2023/05/09 10:40:07;;;;;;;3.17;2.90;;;;;;;23.69;36.39;100657.38;5111334;28;20223;-82
2023/05/09 10:42:35;;;;;;;4.00;3.60;;;;;;;23.75;36.20;100651.22;5106834;28;20282;-82
2023/05/09 10:45:01;;;;;;;5.20;4.28;;;;;;;23.81;36.66;100645.91;5105356;28;20213;-83
2023/05/09 10:47:30;;;;;;;4.45;3.95;;;;;;;23.88;36.62;100646.84;5109592;28;20203;-82
2023/05/09 10:49:59;;;;;;;4.50;4.07;;;;;;;23.87;36.53;100642.44;5102290;28;20649;-83
2023/05/09 10:52:31;;;;;;;4.07;3.63;;;;;;;23.91;37.14;100621.16;5105529;28;20207;-83
2023/05/09 10:55:02;;;;;;;3.50;3.20;;;;;;;23.97;37.42;100633.19;5107566;28;20191;-81
2023/05/09 10:57:30;;;;;;;3.58;3.17;;;;;;;24.03;38.32;100625.09;5111902;28;20214;-82
2023/05/09 10:59:59;;;;;;;3.88;3.47;;;;;;;24.03;36.76;100616.09;5104073;28;20228;-82
2023/05/09 11:02:28;;;;;;;3.38;3.08;;;;;;;23.95;35.85;100614.31;5105075;28;20199;-83
2023/05/09 11:05:20;;;;;;;7.05;3.65;;;;;;;23.91;36.50;100607.56;5105692;28;20204;-83
2023/05/09 11:07:47;;;;;;;3.83;3.53;;;;;;;23.92;36.92;100603.81;5104616;28;20203;-82
2023/05/09 11:10:16;;;;;;;4.10;3.67;;;;;;;23.98;37.01;100607.66;5113533;28;20286;-83
2023/05/09 11:12:56;;;;;;;3.22;2.92;;;;;;;24.06;37.63;100597.53;5112605;28;20679;-84
2023/05/09 11:15:22;;;;;;;3.63;3.33;;;;;;;24.12;36.38;100594.09;5105540;28;20210;-83
2023/05/09 11:18:04;;;;;;;3.78;3.47;;;;;;;24.05;35.08;100578.69;5114727;28;20204;-84
2023/05/09 11:20:33;;;;;;;4.10;3.20;;;;;;;24.03;35.79;100589.75;5108252;28;20238;-85
2023/05/09 11:23:01;;;;;;;23.77;6.38;;;;;;;24.04;35.55;100576.97;5103002;28;20206;-84
2023/05/09 11:25:29;;;;;;;4.32;3.38;;;;;;;24.05;35.45;100578.69;5111170;28;20215;-84
2023/05/09 11:28:00;;;;;;;3.40;3.10;;;;;;;24.07;34.75;100577.47;5102151;28;20214;-82
2023/05/09 11:30:39;;;;;;;2.78;2.58;;;;;;;24.04;34.24;100571.53;5110945;28;20251;-83
2023/05/09 11:33:06;;;;;;;3.38;2.90;;;;;;;24.07;35.84;100571.16;5113759;28;20255;-84